Time,TemperatureF,DewpointF,PressureIn,WindDirection,WindDirectionDegrees,WindSpeedMPH,WindSpeedGustMPH,Humidity,HourlyPrecipIn,Conditions,Clouds,dailyrainin,SoftwareType,DateUTC
2013-01-19 00:05:00,20.3,7.1,30.38,SE,134,0.0,0.0,56,0.00,,,0.00,WeatherTracker,2013-01-19 05:05:00,
2013-01-19 00:10:00,20.5,7.3,30.38,SE,126,0.0,0.0,56,0.00,,,0.00,WeatherTracker,2013-01-19 05:10:00,
2013-01-19 00:15:00,20.5,7.3,30.39,East,93,0.0,0.0,56,0.00,,,0.00,WeatherTracker,2013-01-19 05:15:00,
2013-01-19 00:20:00,20.6,7.4,30.38,ESE,107,0.0,0.0,56,0.00,,,0.00,WeatherTracker,2013-01-19 05:20:00,
2013-01-19 00:30:00,20.8,8.0,30.38,NW,306,0.0,0.0,57,0.00,,,0.00,WeatherTracker,2013-01-19 05:30:00,
2013-01-19 00:35:00,20.9,8.1,30.38,ENE,58,0.0,0.0,57,0.00,,,0.00,WeatherTracker,2013-01-19 05:35:00,
2013-01-19 00:40:00,20.9,7.7,30.37,ENE,57,2.0,0.0,56,0.00,,,0.00,WeatherTracker,2013-01-19 05:40:00,
2013-01-19 00:50:00,21.0,7.8,30.37,ESE,107,2.0,0.0,56,0.00,,,0.00,WeatherTracker,2013-01-19 05:50:00,
2013-01-19 01:00:00,21.2,8.4,30.36,East,82,2.0,0.0,57,0.00,,,0.00,WeatherTracker,2013-01-19 06:00:00,
2013-01-19 01:05:00,21.3,8.5,30.36,ESE,121,2.0,0.0,57,0.00,,,0.00,WeatherTracker,2013-01-19 06:05:00,
2013-01-19 01:10:00,21.4,8.2,30.35,West,267,1.0,0.0,56,0.00,,,0.00,WeatherTracker,2013-01-19 06:10:00,
2013-01-19 01:20:00,21.7,8.8,30.37,ESE,106,1.0,0.0,57,0.00,,,0.00,WeatherTracker,2013-01-19 06:20:00,
2013-01-19 01:30:00,24.0,10.2,30.36,WSW,253,6.0,0.0,55,0.00,,,0.00,WeatherTracker,2013-01-19 06:30:00,
2013-01-19 01:40:00,24.2,10.4,30.35,SW,225,7.0,0.0,55,0.00,,,0.00,WeatherTracker,2013-01-19 06:40:00,
2013-01-19 01:45:00,24.3,10.5,30.35,WSW,243,1.0,0.0,55,0.00,,,0.00,WeatherTracker,2013-01-19 06:45:00,
2013-01-19 01:50:00,24.5,11.1,30.35,SSW,202,14.0,0.0,56,0.00,,,0.00,WeatherTracker,2013-01-19 06:50:00,
2013-01-19 01:55:00,24.7,11.3,30.35,WSW,252,4.0,0.0,56,0.00,,,0.00,WeatherTracker,2013-01-19 06:55:00,
2013-01-19 02:00:00,24.9,11.5,30.35,SW,224,7.0,0.0,56,0.00,,,0.00,WeatherTracker,2013-01-19 07:00:00,
2013-01-19 02:05:00,25.2,11.7,30.34,SW,236,8.0,0.0,56,0.00,,,0.00,WeatherTracker,2013-01-19 07:05:00,
2013-01-19 02:15:00,25.6,12.1,30.34,SSW,200,5.0,0.0,56,0.00,,,0.00,WeatherTracker,2013-01-19 07:15:00,
2013-01-19 02:25:00,25.9,12.8,30.33,SSW,202,5.0,0.0,57,0.00,,,0.00,WeatherTracker,2013-01-19 07:25:00,
2013-01-19 02:30:00,26.0,12.9,30.32,West,281,2.0,0.0,57,0.00,,,0.00,WeatherTracker,2013-01-19 07:30:00,
2013-01-19 02:40:00,26.3,13.2,30.32,West,264,5.0,0.0,57,0.00,,,0.00,WeatherTracker,2013-01-19 07:40:00,
2013-01-19 02:45:00,26.5,13.7,30.32,WSW,245,6.0,0.0,58,0.00,,,0.00,WeatherTracker,2013-01-19 07:45:00,
2013-01-19 02:55:00,26.8,14.0,30.31,WSW,257,4.0,0.0,58,0.00,,,0.00,WeatherTracker,2013-01-19 07:55:00,
2013-01-19 03:00:00,26.9,14.5,30.31,WSW,251,3.0,0.0,59,0.00,,,0.00,WeatherTracker,2013-01-19 08:00:00,
2013-01-19 03:05:00,26.9,14.9,30.31,SW,225,3.0,0.0,60,0.00,,,0.00,WeatherTracker,2013-01-19 08:05:00,
2013-01-19 03:10:00,27.1,15.1,30.30,SW,219,5.0,0.0,60,0.00,,,0.00,WeatherTracker,2013-01-19 08:10:00,
2013-01-19 03:20:00,27.6,15.6,30.30,WSW,241,9.0,0.0,60,0.00,,,0.00,WeatherTracker,2013-01-19 08:20:00,
2013-01-19 03:30:00,28.1,16.0,30.29,WSW,250,3.0,0.0,60,0.00,,,0.00,WeatherTracker,2013-01-19 08:30:00,
2013-01-19 03:35:00,28.3,16.2,30.29,WSW,242,4.0,0.0,60,0.00,,,0.00,WeatherTracker,2013-01-19 08:35:00,
2013-01-19 03:40:00,28.5,16.0,30.29,WSW,240,7.0,0.0,59,0.00,,,0.00,WeatherTracker,2013-01-19 08:40:00,
2013-01-19 03:50:00,28.7,16.6,30.29,SW,224,11.0,0.0,60,0.00,,,0.00,WeatherTracker,2013-01-19 08:50:00,
2013-01-19 03:55:00,28.7,16.6,30.28,WSW,242,6.0,0.0,60,0.00,,,0.00,WeatherTracker,2013-01-19 08:55:00,
2013-01-19 04:05:00,28.9,17.2,30.28,WSW,242,6.0,0.0,61,0.00,,,0.00,WeatherTracker,2013-01-19 09:05:00,
2013-01-19 04:10:00,28.9,17.2,30.27,WSW,246,8.0,0.0,61,0.00,,,0.00,WeatherTracker,2013-01-19 09:10:00,
2013-01-19 04:20:00,28.9,17.5,30.27,SW,224,5.0,0.0,62,0.00,,,0.00,WeatherTracker,2013-01-19 09:20:00,
2013-01-19 04:25:00,28.9,17.9,30.26,SW,223,5.0,0.0,63,0.00,,,0.00,WeatherTracker,2013-01-19 09:25:00,
2013-01-19 04:35:00,29.0,18.4,30.26,West,264,10.0,0.0,64,0.00,,,0.00,WeatherTracker,2013-01-19 09:35:00,
2013-01-19 04:40:00,29.0,18.4,30.25,SW,234,7.0,0.0,64,0.00,,,0.00,WeatherTracker,2013-01-19 09:40:00,
2013-01-19 04:45:00,29.1,18.5,30.25,West,267,3.0,0.0,64,0.00,,,0.00,WeatherTracker,2013-01-19 09:45:00,
2013-01-19 04:50:00,29.2,18.9,30.25,WSW,246,12.0,0.0,65,0.00,,,0.00,WeatherTracker,2013-01-19 09:50:00,
2013-01-19 05:00:00,29.4,19.1,30.24,West,271,9.0,0.0,65,0.00,,,0.00,WeatherTracker,2013-01-19 10:00:00,
2013-01-19 05:05:00,29.4,19.1,30.24,SW,230,6.0,0.0,65,0.00,,,0.00,WeatherTracker,2013-01-19 10:05:00,
2013-01-19 05:10:00,29.6,19.3,30.24,West,265,6.0,0.0,65,0.00,,,0.00,WeatherTracker,2013-01-19 10:10:00,
2013-01-19 05:15:00,29.7,19.4,30.24,SW,236,11.0,0.0,65,0.00,,,0.00,WeatherTracker,2013-01-19 10:15:00,
2013-01-19 05:20:00,29.9,19.6,30.24,WSW,247,8.0,0.0,65,0.00,,,0.00,WeatherTracker,2013-01-19 10:20:00,
2013-01-19 05:30:00,30.1,19.8,30.23,SW,225,9.0,0.0,65,0.00,,,0.00,WeatherTracker,2013-01-19 10:30:00,
2013-01-19 05:35:00,30.3,19.6,30.24,SW,229,7.0,0.0,64,0.00,,,0.00,WeatherTracker,2013-01-19 10:35:00,
2013-01-19 05:40:00,30.4,19.7,30.23,SSW,211,4.0,0.0,64,0.00,,,0.00,WeatherTracker,2013-01-19 10:40:00,
2013-01-19 05:45:00,30.5,19.8,30.23,SW,236,2.0,0.0,64,0.00,,,0.00,WeatherTracker,2013-01-19 10:45:00,
2013-01-19 05:50:00,30.6,19.9,30.23,SSE,149,3.0,0.0,64,0.00,,,0.00,WeatherTracker,2013-01-19 10:50:00,
2013-01-19 06:00:00,30.8,20.1,30.23,West,267,8.0,0.0,64,0.00,,,0.00,WeatherTracker,2013-01-19 11:00:00,
2013-01-19 06:05:00,30.9,20.5,30.22,WSW,247,6.0,0.0,65,0.00,,,0.00,WeatherTracker,2013-01-19 11:05:00,
2013-01-19 07:50:00,32.5,22.4,30.20,WSW,237,4.0,0.0,66,0.00,,,0.00,WeatherTracker,2013-01-19 12:50:00,
2013-01-19 07:55:00,32.7,22.6,30.20,West,263,4.0,0.0,66,0.00,,,0.00,WeatherTracker,2013-01-19 12:55:00,
2013-01-19 08:00:00,32.8,22.7,30.20,SSW,198,5.0,0.0,66,0.00,,,0.00,WeatherTracker,2013-01-19 13:00:00,
2013-01-19 08:05:00,33.0,22.9,30.20,WSW,254,6.0,0.0,66,0.00,,,0.00,WeatherTracker,2013-01-19 13:05:00,
2013-01-19 08:10:00,33.3,22.8,30.20,SSE,158,6.0,0.0,65,0.00,,,0.00,WeatherTracker,2013-01-19 13:10:00,
2013-01-19 08:20:00,33.7,23.2,30.20,West,266,10.0,0.0,65,0.00,,,0.00,WeatherTracker,2013-01-19 13:20:00,
2013-01-19 08:30:00,34.2,23.7,30.19,SW,229,6.0,0.0,65,0.00,,,0.00,WeatherTracker,2013-01-19 13:30:00,
2013-01-19 08:40:00,34.8,24.3,30.19,WSW,255,10.0,0.0,65,0.00,,,0.00,WeatherTracker,2013-01-19 13:40:00,
2013-01-19 08:45:00,35.1,24.2,30.19,SW,221,4.0,0.0,64,0.00,,,0.00,WeatherTracker,2013-01-19 13:45:00,
2013-01-19 08:50:00,35.2,24.3,30.20,SSW,210,4.0,0.0,64,0.00,,,0.00,WeatherTracker,2013-01-19 13:50:00,
2013-01-19 08:55:00,35.5,24.5,30.20,SSW,202,10.0,0.0,64,0.00,,,0.00,WeatherTracker,2013-01-19 13:55:00,
2013-01-19 09:05:00,36.1,25.1,30.19,SSW,199,9.0,0.0,64,0.00,,,0.00,WeatherTracker,2013-01-19 14:05:00,
2013-01-19 09:10:00,36.2,25.2,30.19,WSW,242,6.0,0.0,64,0.00,,,0.00,WeatherTracker,2013-01-19 14:10:00,
2013-01-19 09:20:00,36.5,25.5,30.19,WNW,283,14.0,0.0,64,0.00,,,0.00,WeatherTracker,2013-01-19 14:20:00,
2013-01-19 09:25:00,36.8,25.8,30.18,SSW,203,5.0,0.0,64,0.00,,,0.00,WeatherTracker,2013-01-19 14:25:00,
2013-01-19 09:35:00,37.2,26.2,30.18,WSW,249,6.0,0.0,64,0.00,,,0.00,WeatherTracker,2013-01-19 14:35:00,
2013-01-19 09:45:00,37.6,26.2,30.18,ENE,65,4.0,0.0,63,0.00,,,0.00,WeatherTracker,2013-01-19 14:45:00,
2013-01-19 09:50:00,37.9,26.4,30.18,West,259,19.0,0.0,63,0.00,,,0.00,WeatherTracker,2013-01-19 14:50:00,
2013-01-19 10:00:00,38.5,26.6,30.17,West,281,8.0,0.0,62,0.00,,,0.00,WeatherTracker,2013-01-19 15:00:00,
2013-01-19 10:05:00,38.7,26.4,30.17,West,260,6.0,0.0,61,0.00,,,0.00,WeatherTracker,2013-01-19 15:05:00,
2013-01-19 10:10:00,39.0,26.7,30.17,SSW,211,7.0,0.0,61,0.00,,,0.00,WeatherTracker,2013-01-19 15:10:00,
2013-01-19 10:15:00,39.2,26.5,30.17,WSW,240,7.0,0.0,60,0.00,,,0.00,WeatherTracker,2013-01-19 15:15:00,
2013-01-19 10:25:00,39.6,26.5,30.16,West,277,6.0,0.0,59,0.00,,,0.00,WeatherTracker,2013-01-19 15:25:00,
2013-01-19 10:30:00,39.8,26.2,30.16,SW,232,9.0,0.0,58,0.00,,,0.00,WeatherTracker,2013-01-19 15:30:00,
2013-01-19 10:35:00,40.0,26.4,30.16,SW,224,9.0,0.0,58,0.00,,,0.00,WeatherTracker,2013-01-19 15:35:00,
2013-01-19 10:45:00,40.3,25.9,30.15,West,265,7.0,0.0,56,0.00,,,0.00,WeatherTracker,2013-01-19 15:45:00,
2013-01-19 10:55:00,40.7,25.8,30.14,SW,221,8.0,0.0,55,0.00,,,0.00,WeatherTracker,2013-01-19 15:55:00,
2013-01-19 11:00:00,40.9,26.0,30.14,SW,233,8.0,0.0,55,0.00,,,0.00,WeatherTracker,2013-01-19 16:00:00,
2013-01-19 11:10:00,41.5,25.2,30.12,WNW,283,14.0,0.0,52,0.00,,,0.00,WeatherTracker,2013-01-19 16:10:00,
2013-01-19 11:15:00,41.6,24.8,30.12,SW,229,10.0,0.0,51,0.00,,,0.00,WeatherTracker,2013-01-19 16:15:00,
2013-01-19 11:20:00,41.8,25.0,30.12,SW,215,9.0,0.0,51,0.00,,,0.00,WeatherTracker,2013-01-19 16:20:00,
2013-01-19 11:30:00,42.3,25.0,30.11,West,259,6.0,0.0,50,0.00,,,0.00,WeatherTracker,2013-01-19 16:30:00,
2013-01-19 11:40:00,42.6,24.8,30.09,WSW,240,8.0,0.0,49,0.00,,,0.00,WeatherTracker,2013-01-19 16:40:00,
2013-01-19 11:45:00,42.8,25.0,30.09,SW,223,16.0,0.0,49,0.00,,,0.00,WeatherTracker,2013-01-19 16:45:00,
2013-01-19 11:50:00,42.9,25.1,30.09,WSW,252,8.0,0.0,49,0.00,,,0.00,WeatherTracker,2013-01-19 16:50:00,
2013-01-19 12:00:00,43.2,25.3,30.08,WSW,254,7.0,0.0,49,0.00,,,0.00,WeatherTracker,2013-01-19 17:00:00,
2013-01-19 12:10:00,43.4,25.5,30.07,West,261,5.0,0.0,49,0.00,,,0.00,WeatherTracker,2013-01-19 17:10:00,
2013-01-19 12:15:00,43.4,25.0,30.07,SW,226,7.0,0.0,48,0.00,,,0.00,WeatherTracker,2013-01-19 17:15:00,
2013-01-19 12:25:00,43.7,25.3,30.06,WNW,300,6.0,0.0,48,0.00,,,0.00,WeatherTracker,2013-01-19 17:25:00,
2013-01-19 12:35:00,43.9,25.0,30.06,West,259,12.0,0.0,47,0.00,,,0.00,WeatherTracker,2013-01-19 17:35:00,
2013-01-19 12:40:00,43.9,25.0,30.05,SSW,196,7.0,0.0,47,0.00,,,0.00,WeatherTracker,2013-01-19 17:40:00,
2013-01-19 13:00:00,44.2,25.3,30.04,WNW,284,11.0,0.0,47,0.00,,,0.00,WeatherTracker,2013-01-19 18:00:00,
2013-01-19 13:15:00,44.9,25.4,30.04,SW,228,8.0,0.0,46,0.00,,,0.00,WeatherTracker,2013-01-19 18:15:00,
2013-01-19 13:25:00,45.9,25.8,30.04,West,273,7.0,0.0,45,0.00,,,0.00,WeatherTracker,2013-01-19 18:25:00,
2013-01-19 13:35:00,46.4,25.7,30.03,SW,216,3.0,0.0,44,0.00,,,0.00,WeatherTracker,2013-01-19 18:35:00,
2013-01-19 13:45:00,46.9,26.1,30.03,West,280,3.0,0.0,44,0.00,,,0.00,WeatherTracker,2013-01-19 18:45:00,
2013-01-19 13:55:00,47.2,25.9,30.02,WSW,242,6.0,0.0,43,0.00,,,0.00,WeatherTracker,2013-01-19 18:55:00,
2013-01-19 14:00:00,47.3,25.9,30.02,SW,221,6.0,0.0,43,0.00,,,0.00,WeatherTracker,2013-01-19 19:00:00,
2013-01-19 14:05:00,47.4,26.0,30.02,SW,229,9.0,0.0,43,0.00,,,0.00,WeatherTracker,2013-01-19 19:05:00,
2013-01-19 14:10:00,47.5,25.6,30.02,SW,227,18.0,0.0,42,0.00,,,0.00,WeatherTracker,2013-01-19 19:10:00,
2013-01-19 14:20:00,47.5,25.6,30.02,SW,215,11.0,0.0,42,0.00,,,0.00,WeatherTracker,2013-01-19 19:20:00,
2013-01-19 14:25:00,47.4,25.5,30.02,WSW,249,10.0,0.0,42,0.00,,,0.00,WeatherTracker,2013-01-19 19:25:00,
2013-01-19 14:35:00,47.5,26.1,30.01,SSW,196,7.0,0.0,43,0.00,,,0.00,WeatherTracker,2013-01-19 19:35:00,
2013-01-19 14:40:00,47.4,24.9,30.02,NNW,343,7.0,0.0,41,0.00,,,0.00,WeatherTracker,2013-01-19 19:40:00,
2013-01-19 14:50:00,47.2,25.3,30.01,SW,223,7.0,0.0,42,0.00,,,0.00,WeatherTracker,2013-01-19 19:50:00,
2013-01-19 14:55:00,47.2,25.3,30.01,WNW,293,8.0,0.0,42,0.00,,,0.00,WeatherTracker,2013-01-19 19:55:00,
2013-01-19 15:05:00,47.2,25.9,30.01,West,270,7.0,0.0,43,0.00,,,0.00,WeatherTracker,2013-01-19 20:05:00,
2013-01-19 15:10:00,47.2,25.9,30.01,WSW,249,7.0,0.0,43,0.00,,,0.00,WeatherTracker,2013-01-19 20:10:00,
2013-01-19 15:15:00,47.1,25.8,30.00,West,260,11.0,0.0,43,0.00,,,0.00,WeatherTracker,2013-01-19 20:15:00,
2013-01-19 15:25:00,47.0,26.2,30.01,West,271,11.0,0.0,44,0.00,,,0.00,WeatherTracker,2013-01-19 20:25:00,
2013-01-19 15:30:00,46.9,26.1,30.01,SW,221,3.0,0.0,44,0.00,,,0.00,WeatherTracker,2013-01-19 20:30:00,
2013-01-19 15:40:00,46.8,26.0,30.01,West,261,8.0,0.0,44,0.00,,,0.00,WeatherTracker,2013-01-19 20:40:00,
2013-01-19 15:50:00,46.7,26.0,30.00,WNW,282,13.0,0.0,44,0.00,,,0.00,WeatherTracker,2013-01-19 20:50:00,
2013-01-19 16:00:00,46.5,25.8,30.01,West,261,9.0,0.0,44,0.00,,,0.00,WeatherTracker,2013-01-19 21:00:00,
2013-01-19 16:11:00,46.3,26.1,30.01,SSW,207,3.0,0.0,45,0.00,,,0.00,WeatherTracker,2013-01-19 21:11:00,
2013-01-19 16:20:00,45.8,26.2,30.01,WSW,245,6.0,0.0,46,0.00,,,0.00,WeatherTracker,2013-01-19 21:20:00,
2013-01-19 16:35:00,45.1,26.1,30.01,WSW,250,3.0,0.0,47,0.00,,,0.00,WeatherTracker,2013-01-19 21:35:00,
2013-01-19 16:45:00,44.6,26.1,30.01,West,271,7.0,0.0,48,0.00,,,0.00,WeatherTracker,2013-01-19 21:45:00,
2013-01-19 16:55:00,44.3,26.4,30.01,NW,313,4.0,0.0,49,0.00,,,0.00,WeatherTracker,2013-01-19 21:55:00,
2013-01-19 17:05:00,44.0,26.6,30.01,WSW,246,5.0,0.0,50,0.00,,,0.00,WeatherTracker,2013-01-19 22:05:00,
2013-01-19 17:15:00,43.8,26.9,30.01,WSW,237,6.0,0.0,51,0.00,,,0.00,WeatherTracker,2013-01-19 22:15:00,
2013-01-19 17:20:00,43.7,26.8,30.00,WSW,254,10.0,0.0,51,0.00,,,0.00,WeatherTracker,2013-01-19 22:20:00,
2013-01-19 17:30:00,43.5,27.1,30.01,WSW,237,6.0,0.0,52,0.00,,,0.00,WeatherTracker,2013-01-19 22:30:00,
2013-01-19 17:35:00,43.5,27.1,30.01,SSW,208,6.0,0.0,52,0.00,,,0.00,WeatherTracker,2013-01-19 22:35:00,
2013-01-19 17:40:00,43.4,27.0,30.01,West,281,3.0,0.0,52,0.00,,,0.00,WeatherTracker,2013-01-19 22:40:00,
2013-01-19 17:50:00,43.3,26.9,30.01,WSW,253,8.0,0.0,52,0.00,,,0.00,WeatherTracker,2013-01-19 22:50:00,
2013-01-19 17:55:00,43.3,26.9,30.00,West,275,4.0,0.0,52,0.00,,,0.00,WeatherTracker,2013-01-19 22:55:00,
2013-01-19 18:05:00,43.1,27.1,30.01,WSW,252,2.0,0.0,53,0.00,,,0.00,WeatherTracker,2013-01-19 23:05:00,
2013-01-19 18:10:00,42.9,27.0,30.01,WNW,282,3.0,0.0,53,0.00,,,0.00,WeatherTracker,2013-01-19 23:10:00,
2013-01-19 18:15:00,42.8,26.9,30.00,WSW,239,4.0,0.0,53,0.00,,,0.00,WeatherTracker,2013-01-19 23:15:00,
2013-01-19 18:30:00,42.5,27.0,30.00,West,267,1.0,0.0,54,0.00,,,0.00,WeatherTracker,2013-01-19 23:30:00,
2013-01-19 18:35:00,42.4,26.9,30.00,SSW,208,6.0,0.0,54,0.00,,,0.00,WeatherTracker,2013-01-19 23:35:00,
2013-01-19 18:40:00,42.4,26.9,30.00,WSW,240,4.0,0.0,54,0.00,,,0.00,WeatherTracker,2013-01-19 23:40:00,
2013-01-19 18:45:00,42.3,27.3,30.01,West,265,3.0,0.0,55,0.00,,,0.00,WeatherTracker,2013-01-19 23:45:00,
2013-01-19 19:00:00,42.2,27.2,30.00,SW,219,4.0,0.0,55,0.00,,,0.00,WeatherTracker,2013-01-20 00:00:00,
2013-01-19 19:10:00,41.9,27.4,30.00,SSW,209,3.0,0.0,56,0.00,,,0.00,WeatherTracker,2013-01-20 00:10:00,
2013-01-19 19:20:00,41.6,27.5,30.00,West,263,9.0,0.0,57,0.00,,,0.00,WeatherTracker,2013-01-20 00:20:00,
2013-01-19 19:25:00,41.6,28.3,30.00,SSW,199,4.0,0.0,59,0.00,,,0.00,WeatherTracker,2013-01-20 00:25:00,
2013-01-19 19:30:00,41.5,28.7,30.00,West,271,4.0,0.0,60,0.00,,,0.00,WeatherTracker,2013-01-20 00:30:00,
2013-01-19 19:40:00,41.4,29.0,30.00,SSW,210,4.0,0.0,61,0.00,,,0.00,WeatherTracker,2013-01-20 00:40:00,
2013-01-19 19:45:00,41.3,29.3,30.00,WSW,242,6.0,0.0,62,0.00,,,0.00,WeatherTracker,2013-01-20 00:45:00,
2013-01-19 19:50:00,41.2,29.2,30.00,SW,225,4.0,0.0,62,0.00,,,0.00,WeatherTracker,2013-01-20 00:50:00,
2013-01-19 19:55:00,41.1,29.5,30.00,SW,234,5.0,0.0,63,0.00,,,0.00,WeatherTracker,2013-01-20 00:55:00,
2013-01-19 20:05:00,40.8,30.0,29.99,SSW,212,6.0,0.0,65,0.00,,,0.00,WeatherTracker,2013-01-20 01:05:00,
2013-01-19 20:10:00,40.7,30.2,29.99,SW,232,5.0,0.0,66,0.00,,,0.00,WeatherTracker,2013-01-20 01:10:00,
2013-01-19 20:15:00,40.6,30.1,29.99,SSW,212,2.0,0.0,66,0.00,,,0.00,WeatherTracker,2013-01-20 01:15:00,
2013-01-19 20:20:00,40.5,30.4,29.99,SW,229,2.0,0.0,67,0.00,,,0.00,WeatherTracker,2013-01-20 01:20:00,
2013-01-19 20:30:00,40.2,30.5,29.99,SSW,199,1.0,0.0,68,0.00,,,0.00,WeatherTracker,2013-01-20 01:30:00,
2013-01-19 20:35:00,40.1,30.8,29.99,SW,235,3.0,0.0,69,0.00,,,0.00,WeatherTracker,2013-01-20 01:35:00,
2013-01-19 20:45:00,39.9,30.9,29.98,WSW,245,2.0,0.0,70,0.00,,,0.00,WeatherTracker,2013-01-20 01:45:00,
2013-01-19 20:50:00,39.8,31.2,29.98,SW,219,1.0,0.0,71,0.00,,,0.00,WeatherTracker,2013-01-20 01:50:00,
2013-01-19 21:00:00,39.7,31.4,29.98,WSW,244,4.0,0.0,72,0.00,,,0.00,WeatherTracker,2013-01-20 02:00:00,
2013-01-19 21:05:00,39.7,31.4,29.97,SW,236,2.0,0.0,72,0.00,,,0.00,WeatherTracker,2013-01-20 02:05:00,
2013-01-19 21:10:00,39.6,31.7,29.97,WSW,238,3.0,0.0,73,0.00,,,0.00,WeatherTracker,2013-01-20 02:10:00,
2013-01-19 21:20:00,39.5,31.9,29.97,West,269,5.0,0.0,74,0.00,,,0.00,WeatherTracker,2013-01-20 02:20:00,
2013-01-19 21:30:00,39.6,32.0,29.96,SW,226,3.0,0.0,74,0.00,,,0.00,WeatherTracker,2013-01-20 02:30:00,
2013-01-19 21:35:00,39.7,32.1,29.96,WSW,244,6.0,0.0,74,0.00,,,0.00,WeatherTracker,2013-01-20 02:35:00,
2013-01-19 21:45:00,40.0,32.4,29.96,SW,221,2.0,0.0,74,0.00,,,0.00,WeatherTracker,2013-01-20 02:45:00,
2013-01-19 21:50:00,40.1,32.5,29.95,WSW,243,2.0,0.0,74,0.00,,,0.00,WeatherTracker,2013-01-20 02:50:00,
2013-01-19 22:00:00,40.2,32.6,29.95,SW,234,3.0,0.0,74,0.00,,,0.00,WeatherTracker,2013-01-20 03:00:00,
2013-01-19 22:05:00,40.2,32.6,29.95,SSW,206,3.0,0.0,74,0.00,,,0.00,WeatherTracker,2013-01-20 03:05:00,
2013-01-19 22:15:00,40.5,32.5,29.94,SW,233,3.0,0.0,73,0.00,,,0.00,WeatherTracker,2013-01-20 03:15:00,
2013-01-19 22:20:00,40.5,32.5,29.94,SSW,200,7.0,0.0,73,0.00,,,0.00,WeatherTracker,2013-01-20 03:20:00,
2013-01-19 22:25:00,40.6,32.6,29.94,WSW,242,4.0,0.0,73,0.00,,,0.00,WeatherTracker,2013-01-20 03:25:00,
2013-01-19 22:30:00,40.6,32.6,29.94,SSW,205,6.0,0.0,73,0.00,,,0.00,WeatherTracker,2013-01-20 03:30:00,
2013-01-19 22:40:00,40.7,32.7,29.93,SW,236,5.0,0.0,73,0.00,,,0.00,WeatherTracker,2013-01-20 03:40:00,
2013-01-19 22:50:00,40.7,32.7,29.92,WSW,242,3.0,0.0,73,0.00,,,0.00,WeatherTracker,2013-01-20 03:50:00,
2013-01-19 22:55:00,40.7,32.7,29.92,SSW,195,3.0,0.0,73,0.00,,,0.00,WeatherTracker,2013-01-20 03:55:00,
2013-01-19 23:05:00,40.8,32.8,29.91,SSW,192,5.0,0.0,73,0.00,,,0.00,WeatherTracker,2013-01-20 04:05:00,
2013-01-19 23:15:00,40.8,32.8,29.91,SW,230,7.0,0.0,73,0.00,,,0.00,WeatherTracker,2013-01-20 04:15:00,
2013-01-19 23:25:00,40.8,32.8,29.90,SSW,200,3.0,0.0,73,0.00,,,0.00,WeatherTracker,2013-01-20 04:25:00,
2013-01-19 23:35:00,40.8,32.8,29.90,SW,236,3.0,0.0,73,0.00,,,0.00,WeatherTracker,2013-01-20 04:35:00,
2013-01-19 23:40:00,40.9,33.3,29.89,WNW,283,8.0,0.0,74,0.00,,,0.00,WeatherTracker,2013-01-20 04:40:00,
2013-01-19 23:50:00,40.9,33.3,29.89,NW,312,6.0,0.0,74,0.00,,,0.00,WeatherTracker,2013-01-20 04:50:00,
2013-01-19 23:55:00,41.0,33.4,29.89,WSW,251,5.0,0.0,74,0.00,,,0.00,WeatherTracker,2013-01-20 04:55:00,